sensor_id;sensor_type;location;lat;lon;timestamp;P1;durP1;ratioP1;P2;durP2;ratioP2
16117;SDS011;8163;50.118;5.342;2022-08-19T00:02:09;14.60;;;12.13;;
16117;SDS011;8163;50.118;5.342;2022-08-19T00:04:40;13.18;;;11.55;;
16117;SDS011;8163;50.118;5.342;2022-08-19T00:07:08;17.52;;;11.95;;
16117;SDS011;8163;50.118;5.342;2022-08-19T00:09:36;16.35;;;11.70;;
16117;SDS011;8163;50.118;5.342;2022-08-19T00:12:05;13.40;;;11.43;;
16117;SDS011;8163;50.118;5.342;2022-08-19T00:14:35;12.98;;;11.40;;
16117;SDS011;8163;50.118;5.342;2022-08-19T00:17:04;11.43;;;10.32;;
16117;SDS011;8163;50.118;5.342;2022-08-19T00:19:35;11.98;;;10.77;;
16117;SDS011;8163;50.118;5.342;2022-08-19T00:22:05;12.13;;;10.98;;
16117;SDS011;8163;50.118;5.342;2022-08-19T00:24:34;15.27;;;11.43;;
16117;SDS011;8163;50.118;5.342;2022-08-19T00:27:06;12.63;;;10.68;;
16117;SDS011;8163;50.118;5.342;2022-08-19T00:29:33;15.57;;;11.98;;
16117;SDS011;8163;50.118;5.342;2022-08-19T00:32:02;12.48;;;11.23;;
16117;SDS011;8163;50.118;5.342;2022-08-19T00:37:07;14.38;;;12.93;;
16117;SDS011;8163;50.118;5.342;2022-08-19T00:39:35;14.48;;;11.85;;
16117;SDS011;8163;50.118;5.342;2022-08-19T00:42:04;13.05;;;10.88;;
16117;SDS011;8163;50.118;5.342;2022-08-19T00:44:32;12.52;;;11.32;;
16117;SDS011;8163;50.118;5.342;2022-08-19T00:47:01;12.13;;;10.93;;
16117;SDS011;8163;50.118;5.342;2022-08-19T00:49:29;13.18;;;11.75;;
16117;SDS011;8163;50.118;5.342;2022-08-19T00:52:02;13.52;;;12.02;;
16117;SDS011;8163;50.118;5.342;2022-08-19T00:54:34;14.60;;;12.35;;
16117;SDS011;8163;50.118;5.342;2022-08-19T00:57:04;12.25;;;10.95;;
16117;SDS011;8163;50.118;5.342;2022-08-19T00:59:36;16.38;;;11.82;;
16117;SDS011;8163;50.118;5.342;2022-08-19T01:02:06;17.48;;;12.65;;
16117;SDS011;8163;50.118;5.342;2022-08-19T01:04:34;15.50;;;11.68;;
16117;SDS011;8163;50.118;5.342;2022-08-19T01:07:01;13.65;;;12.25;;
16117;SDS011;8163;50.118;5.342;2022-08-19T01:09:28;13.23;;;11.07;;
16117;SDS011;8163;50.118;5.342;2022-08-19T01:11:57;15.13;;;11.73;;
16117;SDS011;8163;50.118;5.342;2022-08-19T01:14:25;13.82;;;12.40;;
16117;SDS011;8163;50.118;5.342;2022-08-19T01:16:53;12.88;;;11.60;;
16117;SDS011;8163;50.118;5.342;2022-08-19T01:19:24;13.43;;;12.07;;
16117;SDS011;8163;50.118;5.342;2022-08-19T01:22:00;17.85;;;13.23;;
16117;SDS011;8163;50.118;5.342;2022-08-19T01:24:33;13.63;;;11.45;;
16117;SDS011;8163;50.118;5.342;2022-08-19T01:27:03;15.30;;;12.25;;
16117;SDS011;8163;50.118;5.342;2022-08-19T01:29:31;13.90;;;12.40;;
16117;SDS011;8163;50.118;5.342;2022-08-19T01:31:59;13.30;;;11.90;;
16117;SDS011;8163;50.118;5.342;2022-08-19T01:34:28;13.02;;;11.55;;
16117;SDS011;8163;50.118;5.342;2022-08-19T01:36:56;15.00;;;11.93;;
16117;SDS011;8163;50.118;5.342;2022-08-19T01:39:24;13.88;;;12.43;;
16117;SDS011;8163;50.118;5.342;2022-08-19T01:41:54;13.10;;;11.90;;
16117;SDS011;8163;50.118;5.342;2022-08-19T01:44:22;13.60;;;12.23;;
16117;SDS011;8163;50.118;5.342;2022-08-19T01:46:52;13.63;;;11.95;;
16117;SDS011;8163;50.118;5.342;2022-08-19T01:49:20;13.75;;;12.18;;
16117;SDS011;8163;50.118;5.342;2022-08-19T01:51:48;14.30;;;12.82;;
16117;SDS011;8163;50.118;5.342;2022-08-19T01:54:17;16.27;;;12.38;;
16117;SDS011;8163;50.118;5.342;2022-08-19T01:56:46;17.35;;;13.40;;
16117;SDS011;8163;50.118;5.342;2022-08-19T01:59:16;15.55;;;13.27;;
16117;SDS011;8163;50.118;5.342;2022-08-19T02:01:47;13.95;;;12.55;;
16117;SDS011;8163;50.118;5.342;2022-08-19T02:04:15;14.82;;;13.32;;
16117;SDS011;8163;50.118;5.342;2022-08-19T02:06:43;15.20;;;12.25;;
16117;SDS011;8163;50.118;5.342;2022-08-19T02:09:13;13.48;;;11.70;;
16117;SDS011;8163;50.118;5.342;2022-08-19T02:11:41;14.48;;;12.98;;
16117;SDS011;8163;50.118;5.342;2022-08-19T02:14:09;13.98;;;12.52;;
16117;SDS011;8163;50.118;5.342;2022-08-19T02:16:38;13.70;;;12.40;;
16117;SDS011;8163;50.118;5.342;2022-08-19T02:19:05;14.35;;;12.88;;
16117;SDS011;8163;50.118;5.342;2022-08-19T02:21:33;15.35;;;13.75;;
16117;SDS011;8163;50.118;5.342;2022-08-19T02:24:01;17.00;;;13.43;;
16117;SDS011;8163;50.118;5.342;2022-08-19T02:26:29;16.02;;;14.32;;
16117;SDS011;8163;50.118;5.342;2022-08-19T02:28:56;16.00;;;14.30;;
16117;SDS011;8163;50.118;5.342;2022-08-19T02:31:24;15.85;;;14.25;;
16117;SDS011;8163;50.118;5.342;2022-08-19T02:33:54;18.23;;;15.18;;
16117;SDS011;8163;50.118;5.342;2022-08-19T02:36:25;16.75;;;14.90;;
16117;SDS011;8163;50.118;5.342;2022-08-19T02:38:53;19.40;;;15.77;;
16117;SDS011;8163;50.118;5.342;2022-08-19T02:41:20;17.38;;;15.18;;
16117;SDS011;8163;50.118;5.342;2022-08-19T02:43:49;21.17;;;17.58;;
16117;SDS011;8163;50.118;5.342;2022-08-19T02:46:17;18.48;;;16.67;;
16117;SDS011;8163;50.118;5.342;2022-08-19T02:48:47;17.92;;;16.05;;
16117;SDS011;8163;50.118;5.342;2022-08-19T02:51:20;18.23;;;16.02;;
16117;SDS011;8163;50.118;5.342;2022-08-19T02:53:49;19.80;;;16.27;;
16117;SDS011;8163;50.118;5.342;2022-08-19T02:56:17;22.77;;;18.77;;
16117;SDS011;8163;50.118;5.342;2022-08-19T02:58:45;18.52;;;16.65;;
16117;SDS011;8163;50.118;5.342;2022-08-19T03:01:19;25.38;;;19.60;;
16117;SDS011;8163;50.118;5.342;2022-08-19T03:03:48;28.15;;;21.35;;
16117;SDS011;8163;50.118;5.342;2022-08-19T03:06:15;22.05;;;19.83;;
16117;SDS011;8163;50.118;5.342;2022-08-19T03:08:45;23.08;;;19.70;;
16117;SDS011;8163;50.118;5.342;2022-08-19T03:11:15;21.33;;;19.08;;
16117;SDS011;8163;50.118;5.342;2022-08-19T03:13:44;21.00;;;18.77;;
16117;SDS011;8163;50.118;5.342;2022-08-19T03:16:14;19.83;;;17.73;;
16117;SDS011;8163;50.118;5.342;2022-08-19T03:18:43;17.58;;;15.55;;
16117;SDS011;8163;50.118;5.342;2022-08-19T03:21:16;19.50;;;17.45;;
16117;SDS011;8163;50.118;5.342;2022-08-19T03:23:45;22.42;;;17.27;;
16117;SDS011;8163;50.118;5.342;2022-08-19T03:26:13;24.73;;;18.98;;
16117;SDS011;8163;50.118;5.342;2022-08-19T03:28:43;24.13;;;21.55;;
16117;SDS011;8163;50.118;5.342;2022-08-19T03:31:16;30.85;;;23.10;;
16117;SDS011;8163;50.118;5.342;2022-08-19T03:33:44;27.33;;;21.65;;
16117;SDS011;8163;50.118;5.342;2022-08-19T03:36:13;28.40;;;23.92;;
16117;SDS011;8163;50.118;5.342;2022-08-19T03:38:43;28.45;;;24.80;;
16117;SDS011;8163;50.118;5.342;2022-08-19T03:41:15;23.98;;;21.42;;
16117;SDS011;8163;50.118;5.342;2022-08-19T03:43:45;31.05;;;27.13;;
16117;SDS011;8163;50.118;5.342;2022-08-19T03:46:14;30.77;;;25.90;;
16117;SDS011;8163;50.118;5.342;2022-08-19T03:48:46;31.02;;;25.85;;
16117;SDS011;8163;50.118;5.342;2022-08-19T03:51:18;25.63;;;21.52;;
16117;SDS011;8163;50.118;5.342;2022-08-19T03:53:48;23.20;;;20.63;;
16117;SDS011;8163;50.118;5.342;2022-08-19T03:56:16;22.88;;;18.77;;
16117;SDS011;8163;50.118;5.342;2022-08-19T03:58:44;18.80;;;16.40;;
16117;SDS011;8163;50.118;5.342;2022-08-19T04:01:13;22.38;;;19.45;;
16117;SDS011;8163;50.118;5.342;2022-08-19T04:03:43;17.55;;;15.88;;
16117;SDS011;8163;50.118;5.342;2022-08-19T04:06:12;19.75;;;17.67;;
16117;SDS011;8163;50.118;5.342;2022-08-19T04:08:42;20.48;;;18.45;;
16117;SDS011;8163;50.118;5.342;2022-08-19T04:11:15;22.50;;;18.65;;
16117;SDS011;8163;50.118;5.342;2022-08-19T04:13:48;25.88;;;21.00;;
16117;SDS011;8163;50.118;5.342;2022-08-19T04:16:16;25.67;;;22.23;;
16117;SDS011;8163;50.118;5.342;2022-08-19T04:18:45;30.27;;;23.38;;
16117;SDS011;8163;50.118;5.342;2022-08-19T04:21:15;27.55;;;24.55;;
16117;SDS011;8163;50.118;5.342;2022-08-19T04:23:44;31.35;;;25.23;;
16117;SDS011;8163;50.118;5.342;2022-08-19T04:26:14;28.98;;;25.98;;
16117;SDS011;8163;50.118;5.342;2022-08-19T04:28:43;31.05;;;26.10;;
16117;SDS011;8163;50.118;5.342;2022-08-19T04:31:12;29.85;;;26.58;;
16117;SDS011;8163;50.118;5.342;2022-08-19T04:33:41;32.00;;;26.20;;
16117;SDS011;8163;50.118;5.342;2022-08-19T04:36:10;29.23;;;25.10;;
16117;SDS011;8163;50.118;5.342;2022-08-19T04:38:45;30.60;;;25.10;;
16117;SDS011;8163;50.118;5.342;2022-08-19T04:41:15;27.38;;;24.52;;
16117;SDS011;8163;50.118;5.342;2022-08-19T04:44:00;32.13;;;27.45;;
16117;SDS011;8163;50.118;5.342;2022-08-19T04:46:29;37.70;;;27.70;;
16117;SDS011;8163;50.118;5.342;2022-08-19T04:48:58;36.97;;;29.10;;
16117;SDS011;8163;50.118;5.342;2022-08-19T04:51:26;35.90;;;29.23;;
16117;SDS011;8163;50.118;5.342;2022-08-19T04:53:56;34.60;;;29.95;;
16117;SDS011;8163;50.118;5.342;2022-08-19T04:56:25;34.83;;;29.50;;
16117;SDS011;8163;50.118;5.342;2022-08-19T04:58:54;38.08;;;30.02;;
16117;SDS011;8163;50.118;5.342;2022-08-19T05:01:23;33.63;;;28.77;;
16117;SDS011;8163;50.118;5.342;2022-08-19T05:03:52;38.33;;;28.50;;
16117;SDS011;8163;50.118;5.342;2022-08-19T05:06:20;35.17;;;28.77;;
16117;SDS011;8163;50.118;5.342;2022-08-19T05:08:48;37.15;;;29.23;;
16117;SDS011;8163;50.118;5.342;2022-08-19T05:11:18;40.83;;;32.10;;
16117;SDS011;8163;50.118;5.342;2022-08-19T05:13:48;41.53;;;33.42;;
16117;SDS011;8163;50.118;5.342;2022-08-19T05:16:18;47.22;;;33.58;;
16117;SDS011;8163;50.118;5.342;2022-08-19T05:18:47;51.05;;;36.40;;
16117;SDS011;8163;50.118;5.342;2022-08-19T05:21:32;47.72;;;36.28;;
16117;SDS011;8163;50.118;5.342;2022-08-19T05:24:18;48.25;;;35.63;;
16117;SDS011;8163;50.118;5.342;2022-08-19T05:26:47;53.20;;;37.80;;
16117;SDS011;8163;50.118;5.342;2022-08-19T05:29:19;50.53;;;37.50;;
16117;SDS011;8163;50.118;5.342;2022-08-19T05:31:48;57.15;;;38.65;;
16117;SDS011;8163;50.118;5.342;2022-08-19T05:34:15;53.58;;;38.10;;
16117;SDS011;8163;50.118;5.342;2022-08-19T05:36:45;54.00;;;38.55;;
16117;SDS011;8163;50.118;5.342;2022-08-19T05:39:14;63.15;;;40.45;;
16117;SDS011;8163;50.118;5.342;2022-08-19T05:41:46;53.92;;;37.53;;
16117;SDS011;8163;50.118;5.342;2022-08-19T05:44:20;58.05;;;40.15;;
16117;SDS011;8163;50.118;5.342;2022-08-19T05:46:47;57.20;;;39.08;;
16117;SDS011;8163;50.118;5.342;2022-08-19T05:49:20;55.42;;;41.25;;
16117;SDS011;8163;50.118;5.342;2022-08-19T05:51:49;65.40;;;42.97;;
16117;SDS011;8163;50.118;5.342;2022-08-19T05:54:18;58.58;;;40.47;;
16117;SDS011;8163;50.118;5.342;2022-08-19T05:56:45;62.70;;;42.60;;
16117;SDS011;8163;50.118;5.342;2022-08-19T05:59:16;56.90;;;42.03;;
16117;SDS011;8163;50.118;5.342;2022-08-19T06:01:50;61.13;;;43.78;;
16117;SDS011;8163;50.118;5.342;2022-08-19T06:04:22;57.13;;;40.00;;
16117;SDS011;8163;50.118;5.342;2022-08-19T06:06:51;59.35;;;44.35;;
16117;SDS011;8163;50.118;5.342;2022-08-19T06:09:19;60.08;;;43.55;;
16117;SDS011;8163;50.118;5.342;2022-08-19T06:11:48;64.20;;;42.85;;
16117;SDS011;8163;50.118;5.342;2022-08-19T06:14:19;61.33;;;41.80;;
16117;SDS011;8163;50.118;5.342;2022-08-19T06:16:50;58.42;;;43.38;;
16117;SDS011;8163;50.118;5.342;2022-08-19T06:19:18;53.95;;;40.35;;
16117;SDS011;8163;50.118;5.342;2022-08-19T06:21:50;62.33;;;41.92;;
16117;SDS011;8163;50.118;5.342;2022-08-19T06:24:19;55.35;;;42.22;;
16117;SDS011;8163;50.118;5.342;2022-08-19T06:26:51;58.38;;;42.35;;
16117;SDS011;8163;50.118;5.342;2022-08-19T06:29:21;54.72;;;41.40;;
16117;SDS011;8163;50.118;5.342;2022-08-19T06:31:54;54.30;;;39.75;;
16117;SDS011;8163;50.118;5.342;2022-08-19T06:34:23;55.05;;;38.95;;
16117;SDS011;8163;50.118;5.342;2022-08-19T06:36:54;65.55;;;42.88;;
16117;SDS011;8163;50.118;5.342;2022-08-19T06:39:23;60.58;;;42.35;;
16117;SDS011;8163;50.118;5.342;2022-08-19T06:41:54;72.70;;;44.95;;
16117;SDS011;8163;50.118;5.342;2022-08-19T06:44:24;74.95;;;44.47;;
16117;SDS011;8163;50.118;5.342;2022-08-19T06:46:55;82.05;;;47.80;;
16117;SDS011;8163;50.118;5.342;2022-08-19T06:49:23;80.30;;;46.55;;
16117;SDS011;8163;50.118;5.342;2022-08-19T06:51:52;87.40;;;47.05;;
16117;SDS011;8163;50.118;5.342;2022-08-19T06:54:22;73.05;;;45.70;;
16117;SDS011;8163;50.118;5.342;2022-08-19T06:56:50;82.82;;;46.63;;
16117;SDS011;8163;50.118;5.342;2022-08-19T06:59:17;80.53;;;46.03;;
16117;SDS011;8163;50.118;5.342;2022-08-19T07:01:47;76.05;;;45.83;;
16117;SDS011;8163;50.118;5.342;2022-08-19T07:04:20;56.85;;;40.13;;
16117;SDS011;8163;50.118;5.342;2022-08-19T07:06:56;56.83;;;37.83;;
16117;SDS011;8163;50.118;5.342;2022-08-19T07:09:25;60.55;;;37.05;;
16117;SDS011;8163;50.118;5.342;2022-08-19T07:11:54;47.22;;;35.28;;
16117;SDS011;8163;50.118;5.342;2022-08-19T07:14:23;55.28;;;36.58;;
16117;SDS011;8163;50.118;5.342;2022-08-19T07:16:53;53.00;;;33.58;;
16117;SDS011;8163;50.118;5.342;2022-08-19T07:19:25;53.42;;;35.25;;
16117;SDS011;8163;50.118;5.342;2022-08-19T07:21:53;47.60;;;32.90;;
16117;SDS011;8163;50.118;5.342;2022-08-19T07:24:23;51.55;;;34.47;;
16117;SDS011;8163;50.118;5.342;2022-08-19T07:26:52;47.95;;;33.10;;
16117;SDS011;8163;50.118;5.342;2022-08-19T07:29:22;51.33;;;34.47;;
16117;SDS011;8163;50.118;5.342;2022-08-19T07:31:50;45.33;;;31.08;;
16117;SDS011;8163;50.118;5.342;2022-08-19T07:34:22;43.35;;;31.80;;
16117;SDS011;8163;50.118;5.342;2022-08-19T07:36:52;43.08;;;30.08;;
16117;SDS011;8163;50.118;5.342;2022-08-19T07:39:21;40.97;;;30.98;;
16117;SDS011;8163;50.118;5.342;2022-08-19T07:41:50;48.88;;;31.42;;
16117;SDS011;8163;50.118;5.342;2022-08-19T07:44:19;46.13;;;33.17;;
16117;SDS011;8163;50.118;5.342;2022-08-19T07:46:49;40.55;;;30.08;;
16117;SDS011;8163;50.118;5.342;2022-08-19T07:49:19;44.70;;;30.10;;
16117;SDS011;8163;50.118;5.342;2022-08-19T07:51:48;44.58;;;29.85;;
16117;SDS011;8163;50.118;5.342;2022-08-19T07:54:22;40.58;;;28.58;;
16117;SDS011;8163;50.118;5.342;2022-08-19T07:56:52;43.33;;;29.95;;
16117;SDS011;8163;50.118;5.342;2022-08-19T07:59:20;39.28;;;28.20;;
16117;SDS011;8163;50.118;5.342;2022-08-19T08:01:50;41.05;;;29.38;;
16117;SDS011;8163;50.118;5.342;2022-08-19T08:04:18;44.38;;;30.48;;
16117;SDS011;8163;50.118;5.342;2022-08-19T08:07:06;43.25;;;30.08;;
16117;SDS011;8163;50.118;5.342;2022-08-19T08:09:51;43.38;;;30.58;;
16117;SDS011;8163;50.118;5.342;2022-08-19T08:12:22;45.28;;;29.40;;
16117;SDS011;8163;50.118;5.342;2022-08-19T08:14:54;43.17;;;30.52;;
16117;SDS011;8163;50.118;5.342;2022-08-19T08:17:23;44.25;;;31.02;;
16117;SDS011;8163;50.118;5.342;2022-08-19T08:19:53;39.33;;;28.73;;
16117;SDS011;8163;50.118;5.342;2022-08-19T08:22:25;40.13;;;29.40;;
16117;SDS011;8163;50.118;5.342;2022-08-19T08:25:12;42.08;;;29.70;;
16117;SDS011;8163;50.118;5.342;2022-08-19T08:27:43;41.55;;;30.52;;
16117;SDS011;8163;50.118;5.342;2022-08-19T08:30:12;42.13;;;28.77;;
16117;SDS011;8163;50.118;5.342;2022-08-19T08:32:41;43.22;;;30.35;;
16117;SDS011;8163;50.118;5.342;2022-08-19T08:35:10;36.53;;;29.10;;
16117;SDS011;8163;50.118;5.342;2022-08-19T08:37:40;42.20;;;30.17;;
16117;SDS011;8163;50.118;5.342;2022-08-19T08:40:22;40.97;;;31.95;;
16117;SDS011;8163;50.118;5.342;2022-08-19T08:42:55;47.90;;;31.92;;
16117;SDS011;8163;50.118;5.342;2022-08-19T08:45:30;43.22;;;29.25;;
16117;SDS011;8163;50.118;5.342;2022-08-19T08:48:02;45.83;;;30.77;;
16117;SDS011;8163;50.118;5.342;2022-08-19T08:50:45;41.25;;;30.80;;
16117;SDS011;8163;50.118;5.342;2022-08-19T08:53:22;45.45;;;29.08;;
16117;SDS011;8163;50.118;5.342;2022-08-19T08:55:50;39.78;;;27.30;;
16117;SDS011;8163;50.118;5.342;2022-08-19T08:58:21;40.63;;;28.63;;
16117;SDS011;8163;50.118;5.342;2022-08-19T09:00:59;37.35;;;28.95;;
16117;SDS011;8163;50.118;5.342;2022-08-19T09:03:28;33.85;;;27.42;;
16117;SDS011;8163;50.118;5.342;2022-08-19T09:05:58;34.70;;;27.20;;
16117;SDS011;8163;50.118;5.342;2022-08-19T09:08:33;30.92;;;25.83;;
16117;SDS011;8163;50.118;5.342;2022-08-19T09:11:06;29.27;;;24.67;;
16117;SDS011;8163;50.118;5.342;2022-08-19T09:13:38;32.40;;;23.40;;
16117;SDS011;8163;50.118;5.342;2022-08-19T09:16:19;27.55;;;19.20;;
16117;SDS011;8163;50.118;5.342;2022-08-19T09:18:53;20.05;;;17.05;;
16117;SDS011;8163;50.118;5.342;2022-08-19T09:21:24;20.52;;;16.77;;
16117;SDS011;8163;50.118;5.342;2022-08-19T09:23:55;21.70;;;18.30;;
16117;SDS011;8163;50.118;5.342;2022-08-19T09:26:24;22.50;;;18.17;;
16117;SDS011;8163;50.118;5.342;2022-08-19T09:28:52;21.73;;;17.58;;
16117;SDS011;8163;50.118;5.342;2022-08-19T09:31:21;19.35;;;15.38;;
16117;SDS011;8163;50.118;5.342;2022-08-19T09:33:51;17.52;;;15.02;;
16117;SDS011;8163;50.118;5.342;2022-08-19T09:36:22;22.63;;;14.55;;
16117;SDS011;8163;50.118;5.342;2022-08-19T09:38:59;16.17;;;13.95;;
16117;SDS011;8163;50.118;5.342;2022-08-19T09:41:28;14.75;;;13.43;;
16117;SDS011;8163;50.118;5.342;2022-08-19T09:43:56;15.57;;;13.82;;
16117;SDS011;8163;50.118;5.342;2022-08-19T09:46:27;16.85;;;13.63;;
16117;SDS011;8163;50.118;5.342;2022-08-19T09:48:57;16.00;;;11.70;;
16117;SDS011;8163;50.118;5.342;2022-08-19T09:51:30;14.88;;;10.52;;
16117;SDS011;8163;50.118;5.342;2022-08-19T09:54:00;10.80;;;9.70;;
16117;SDS011;8163;50.118;5.342;2022-08-19T09:56:29;8.18;;;7.47;;
16117;SDS011;8163;50.118;5.342;2022-08-19T09:58:58;10.00;;;6.05;;
16117;SDS011;8163;50.118;5.342;2022-08-19T10:01:27;4.93;;;4.53;;
16117;SDS011;8163;50.118;5.342;2022-08-19T10:03:59;4.57;;;4.20;;
16117;SDS011;8163;50.118;5.342;2022-08-19T10:06:33;3.63;;;3.35;;
16117;SDS011;8163;50.118;5.342;2022-08-19T10:09:04;3.50;;;3.20;;
16117;SDS011;8163;50.118;5.342;2022-08-19T10:11:35;3.22;;;2.92;;
16117;SDS011;8163;50.118;5.342;2022-08-19T10:14:05;2.83;;;2.63;;
16117;SDS011;8163;50.118;5.342;2022-08-19T10:16:33;4.15;;;2.88;;
16117;SDS011;8163;50.118;5.342;2022-08-19T10:19:07;2.70;;;2.50;;
16117;SDS011;8163;50.118;5.342;2022-08-19T10:21:35;3.22;;;2.92;;
16117;SDS011;8163;50.118;5.342;2022-08-19T10:24:06;2.80;;;2.20;;
16117;SDS011;8163;50.118;5.342;2022-08-19T10:26:35;2.65;;;2.45;;
16117;SDS011;8163;50.118;5.342;2022-08-19T10:29:07;1.65;;;1.55;;
16117;SDS011;8163;50.118;5.342;2022-08-19T10:31:40;3.40;;;1.88;;
16117;SDS011;8163;50.118;5.342;2022-08-19T10:34:08;2.15;;;1.77;;
16117;SDS011;8163;50.118;5.342;2022-08-19T10:36:36;5.95;;;1.60;;
16117;SDS011;8163;50.118;5.342;2022-08-19T10:39:06;1.65;;;1.55;;
16117;SDS011;8163;50.118;5.342;2022-08-19T10:41:38;1.52;;;1.33;;
16117;SDS011;8163;50.118;5.342;2022-08-19T10:44:09;1.70;;;1.60;;
16117;SDS011;8163;50.118;5.342;2022-08-19T10:46:39;1.10;;;1.10;;
16117;SDS011;8163;50.118;5.342;2022-08-19T10:49:10;1.08;;;1.08;;
16117;SDS011;8163;50.118;5.342;2022-08-19T10:51:41;1.35;;;1.35;;
16117;SDS011;8163;50.118;5.342;2022-08-19T10:54:27;1.00;;;1.00;;
16117;SDS011;8163;50.118;5.342;2022-08-19T10:57:10;3.08;;;1.40;;
16117;SDS011;8163;50.118;5.342;2022-08-19T10:59:38;1.25;;;1.17;;
16117;SDS011;8163;50.118;5.342;2022-08-19T11:38:26;1.45;;;1.35;;
16117;SDS011;8163;50.118;5.342;2022-08-19T11:40:57;1.30;;;1.30;;
16117;SDS011;8163;50.118;5.342;2022-08-19T11:43:26;1.63;;;1.52;;
16117;SDS011;8163;50.118;5.342;2022-08-19T11:45:53;1.50;;;1.50;;
16117;SDS011;8163;50.118;5.342;2022-08-19T11:48:21;1.60;;;1.50;;
16117;SDS011;8163;50.118;5.342;2022-08-19T11:50:48;2.88;;;1.65;;
16117;SDS011;8163;50.118;5.342;2022-08-19T11:53:16;1.65;;;1.55;;
16117;SDS011;8163;50.118;5.342;2022-08-19T11:55:44;1.20;;;1.20;;
16117;SDS011;8163;50.118;5.342;2022-08-19T11:58:12;1.70;;;1.60;;
16117;SDS011;8163;50.118;5.342;2022-08-19T12:00:41;1.75;;;1.65;;
16117;SDS011;8163;50.118;5.342;2022-08-19T12:03:10;1.92;;;1.70;;
16117;SDS011;8163;50.118;5.342;2022-08-19T12:05:37;1.20;;;1.20;;
16117;SDS011;8163;50.118;5.342;2022-08-19T12:08:05;2.95;;;1.40;;
16117;SDS011;8163;50.118;5.342;2022-08-19T12:10:33;1.63;;;1.27;;
16117;SDS011;8163;50.118;5.342;2022-08-19T12:13:02;1.75;;;1.25;;
16117;SDS011;8163;50.118;5.342;2022-08-19T12:15:29;1.13;;;1.10;;
16117;SDS011;8163;50.118;5.342;2022-08-19T12:17:56;1.23;;;1.15;;
16117;SDS011;8163;50.118;5.342;2022-08-19T12:20:23;1.33;;;1.30;;
16117;SDS011;8163;50.118;5.342;2022-08-19T12:22:51;1.52;;;1.33;;
16117;SDS011;8163;50.118;5.342;2022-08-19T12:25:18;1.15;;;1.15;;
16117;SDS011;8163;50.118;5.342;2022-08-19T12:27:47;1.27;;;0.90;;
16117;SDS011;8163;50.118;5.342;2022-08-19T12:30:16;1.10;;;1.00;;
16117;SDS011;8163;50.118;5.342;2022-08-19T12:32:43;2.30;;;0.95;;
16117;SDS011;8163;50.118;5.342;2022-08-19T12:35:10;2.80;;;1.00;;
16117;SDS011;8163;50.118;5.342;2022-08-19T12:37:37;6.60;;;6.00;;
16117;SDS011;8163;50.118;5.342;2022-08-19T12:40:07;1.20;;;1.10;;
16117;SDS011;8163;50.118;5.342;2022-08-19T12:42:36;0.88;;;0.88;;
16117;SDS011;8163;50.118;5.342;2022-08-19T12:45:07;1.08;;;0.98;;
16117;SDS011;8163;50.118;5.342;2022-08-19T12:47:37;1.20;;;1.10;;
16117;SDS011;8163;50.118;5.342;2022-08-19T12:50:05;0.90;;;0.90;;
16117;SDS011;8163;50.118;5.342;2022-08-19T12:52:34;0.80;;;0.80;;
16117;SDS011;8163;50.118;5.342;2022-08-19T12:55:03;2.83;;;0.90;;
16117;SDS011;8163;50.118;5.342;2022-08-19T12:57:31;2.67;;;0.93;;
16117;SDS011;8163;50.118;5.342;2022-08-19T13:00:01;1.65;;;0.90;;
16117;SDS011;8163;50.118;5.342;2022-08-19T13:02:31;0.82;;;0.82;;
16117;SDS011;8163;50.118;5.342;2022-08-19T13:05:01;0.80;;;0.80;;
16117;SDS011;8163;50.118;5.342;2022-08-19T13:07:28;0.80;;;0.80;;
16117;SDS011;8163;50.118;5.342;2022-08-19T13:09:55;4.57;;;1.10;;
16117;SDS011;8163;50.118;5.342;2022-08-19T13:12:22;1.05;;;0.93;;
16117;SDS011;8163;50.118;5.342;2022-08-19T13:14:51;0.90;;;0.90;;
16117;SDS011;8163;50.118;5.342;2022-08-19T13:17:19;9.95;;;7.93;;
16117;SDS011;8163;50.118;5.342;2022-08-19T13:19:47;5.65;;;5.03;;
16117;SDS011;8163;50.118;5.342;2022-08-19T13:22:17;2.00;;;1.33;;
16117;SDS011;8163;50.118;5.342;2022-08-19T13:24:45;1.30;;;0.90;;
16117;SDS011;8163;50.118;5.342;2022-08-19T13:27:20;2.25;;;1.13;;
16117;SDS011;8163;50.118;5.342;2022-08-19T13:29:48;2.30;;;1.08;;
16117;SDS011;8163;50.118;5.342;2022-08-19T13:32:33;1.13;;;1.00;;
16117;SDS011;8163;50.118;5.342;2022-08-19T13:35:18;4.40;;;1.27;;
16117;SDS011;8163;50.118;5.342;2022-08-19T13:37:48;1.02;;;1.00;;
16117;SDS011;8163;50.118;5.342;2022-08-19T13:40:20;1.58;;;1.00;;
16117;SDS011;8163;50.118;5.342;2022-08-19T13:42:52;1.02;;;1.00;;
16117;SDS011;8163;50.118;5.342;2022-08-19T13:45:22;1.23;;;1.13;;
16117;SDS011;8163;50.118;5.342;2022-08-19T13:47:53;0.98;;;0.98;;
16117;SDS011;8163;50.118;5.342;2022-08-19T13:50:26;0.85;;;0.82;;
16117;SDS011;8163;50.118;5.342;2022-08-19T13:53:01;4.25;;;1.10;;
16117;SDS011;8163;50.118;5.342;2022-08-19T13:55:31;1.42;;;1.30;;
16117;SDS011;8163;50.118;5.342;2022-08-19T13:58:00;1.15;;;1.15;;
16117;SDS011;8163;50.118;5.342;2022-08-19T14:00:31;1.48;;;1.38;;
16117;SDS011;8163;50.118;5.342;2022-08-19T14:03:03;2.15;;;0.90;;
16117;SDS011;8163;50.118;5.342;2022-08-19T14:05:33;1.00;;;1.00;;
16117;SDS011;8163;50.118;5.342;2022-08-19T14:08:03;1.80;;;1.20;;
16117;SDS011;8163;50.118;5.342;2022-08-19T14:10:31;1.45;;;1.30;;
16117;SDS011;8163;50.118;5.342;2022-08-19T14:13:01;1.73;;;1.13;;
16117;SDS011;8163;50.118;5.342;2022-08-19T14:15:29;3.50;;;1.15;;
16117;SDS011;8163;50.118;5.342;2022-08-19T14:17:59;1.35;;;1.20;;
16117;SDS011;8163;50.118;5.342;2022-08-19T14:20:26;1.80;;;1.58;;
16117;SDS011;8163;50.118;5.342;2022-08-19T14:22:56;1.85;;;1.65;;
16117;SDS011;8163;50.118;5.342;2022-08-19T14:25:28;4.78;;;1.55;;
16117;SDS011;8163;50.118;5.342;2022-08-19T14:27:57;1.50;;;1.42;;
16117;SDS011;8163;50.118;5.342;2022-08-19T14:30:25;1.45;;;1.35;;
16117;SDS011;8163;50.118;5.342;2022-08-19T14:32:55;1.85;;;1.30;;
16117;SDS011;8163;50.118;5.342;2022-08-19T14:35:23;1.30;;;1.20;;
16117;SDS011;8163;50.118;5.342;2022-08-19T14:41:10;3.50;;;1.27;;
16117;SDS011;8163;50.118;5.342;2022-08-19T14:43:43;3.05;;;1.52;;
16117;SDS011;8163;50.118;5.342;2022-08-19T14:46:13;1.42;;;1.33;;
16117;SDS011;8163;50.118;5.342;2022-08-19T14:48:42;2.55;;;1.40;;
16117;SDS011;8163;50.118;5.342;2022-08-19T14:51:12;1.58;;;1.48;;
16117;SDS011;8163;50.118;5.342;2022-08-19T14:53:43;1.60;;;1.50;;
16117;SDS011;8163;50.118;5.342;2022-08-19T14:56:17;1.60;;;1.50;;
16117;SDS011;8163;50.118;5.342;2022-08-19T14:58:46;1.27;;;1.20;;
16117;SDS011;8163;50.118;5.342;2022-08-19T15:01:19;2.55;;;1.30;;
16117;SDS011;8163;50.118;5.342;2022-08-19T15:03:50;1.48;;;1.38;;
16117;SDS011;8163;50.118;5.342;2022-08-19T15:06:21;1.40;;;1.30;;
16117;SDS011;8163;50.118;5.342;2022-08-19T15:08:51;1.60;;;1.50;;
16117;SDS011;8163;50.118;5.342;2022-08-19T15:11:21;1.20;;;1.20;;
16117;SDS011;8163;50.118;5.342;2022-08-19T15:13:51;1.80;;;1.70;;
16117;SDS011;8163;50.118;5.342;2022-08-19T15:16:19;2.97;;;1.55;;
16117;SDS011;8163;50.118;5.342;2022-08-19T15:18:48;1.95;;;1.60;;
16117;SDS011;8163;50.118;5.342;2022-08-19T15:21:17;2.15;;;2.05;;
16117;SDS011;8163;50.118;5.342;2022-08-19T15:23:44;4.45;;;1.83;;
16117;SDS011;8163;50.118;5.342;2022-08-19T15:26:12;1.67;;;1.40;;
16117;SDS011;8163;50.118;5.342;2022-08-19T15:28:41;1.63;;;1.52;;
16117;SDS011;8163;50.118;5.342;2022-08-19T15:31:09;4.25;;;1.45;;
16117;SDS011;8163;50.118;5.342;2022-08-19T15:33:38;1.50;;;1.40;;
16117;SDS011;8163;50.118;5.342;2022-08-19T15:36:09;2.45;;;1.25;;
16117;SDS011;8163;50.118;5.342;2022-08-19T15:38:37;1.55;;;1.45;;
16117;SDS011;8163;50.118;5.342;2022-08-19T15:41:13;1.85;;;1.67;;
16117;SDS011;8163;50.118;5.342;2022-08-19T15:43:50;2.17;;;1.55;;